sensor_id;sensor_type;location;lat;lon;timestamp;P1;durP1;ratioP1;P2;durP2;ratioP2
51949;SDS011;37974;53.218;6.640;2023-09-19T00:01:19;1605.50;;;999.90;;
51949;SDS011;37974;53.218;6.640;2023-09-19T00:03:45;1574.53;;;999.90;;
51949;SDS011;37974;53.218;6.640;2023-09-19T00:06:11;1559.40;;;999.90;;
51949;SDS011;37974;53.218;6.640;2023-09-19T00:08:41;1594.38;;;999.90;;
51949;SDS011;37974;53.218;6.640;2023-09-19T00:11:09;1624.30;;;999.90;;
51949;SDS011;37974;53.218;6.640;2023-09-19T00:13:36;1601.95;;;999.90;;
51949;SDS011;37974;53.218;6.640;2023-09-19T00:16:07;1641.78;;;999.90;;
51949;SDS011;37974;53.218;6.640;2023-09-19T00:18:35;1513.30;;;999.90;;
51949;SDS011;37974;53.218;6.640;2023-09-19T00:21:02;1614.00;;;999.90;;
51949;SDS011;37974;53.218;6.640;2023-09-19T00:23:32;1598.93;;;999.90;;
51949;SDS011;37974;53.218;6.640;2023-09-19T00:26:01;1491.13;;;999.28;;
51949;SDS011;37974;53.218;6.640;2023-09-19T00:28:27;1580.05;;;999.90;;
51949;SDS011;37974;53.218;6.640;2023-09-19T00:30:52;1538.93;;;999.90;;
51949;SDS011;37974;53.218;6.640;2023-09-19T00:33:21;1473.97;;;999.90;;
51949;SDS011;37974;53.218;6.640;2023-09-19T00:35:54;1474.50;;;999.90;;
51949;SDS011;37974;53.218;6.640;2023-09-19T00:38:21;1383.50;;;990.95;;
51949;SDS011;37974;53.218;6.640;2023-09-19T00:40:52;1391.15;;;982.15;;
51949;SDS011;37974;53.218;6.640;2023-09-19T00:43:18;1410.93;;;999.47;;
51949;SDS011;37974;53.218;6.640;2023-09-19T00:45:46;1436.97;;;998.05;;
51949;SDS011;37974;53.218;6.640;2023-09-19T00:48:16;1367.18;;;977.38;;
51949;SDS011;37974;53.218;6.640;2023-09-19T00:50:44;1342.95;;;971.78;;
51949;SDS011;37974;53.218;6.640;2023-09-19T00:53:14;1414.47;;;991.50;;
51949;SDS011;37974;53.218;6.640;2023-09-19T00:55:44;1393.35;;;999.90;;
51949;SDS011;37974;53.218;6.640;2023-09-19T00:58:11;1377.07;;;993.90;;
51949;SDS011;37974;53.218;6.640;2023-09-19T01:00:37;1422.30;;;999.30;;
51949;SDS011;37974;53.218;6.640;2023-09-19T01:03:03;1306.97;;;974.90;;
51949;SDS011;37974;53.218;6.640;2023-09-19T01:05:31;1401.85;;;998.50;;
51949;SDS011;37974;53.218;6.640;2023-09-19T01:07:58;1394.57;;;996.20;;
51949;SDS011;37974;53.218;6.640;2023-09-19T01:10:24;1384.07;;;993.00;;
51949;SDS011;37974;53.218;6.640;2023-09-19T01:15:54;1348.68;;;988.33;;
51949;SDS011;37974;53.218;6.640;2023-09-19T01:21:26;1301.72;;;974.03;;
51949;SDS011;37974;53.218;6.640;2023-09-19T01:27:41;1332.00;;;986.42;;
51949;SDS011;37974;53.218;6.640;2023-09-19T01:30:17;1287.05;;;971.65;;
51949;SDS011;37974;53.218;6.640;2023-09-19T01:32:47;1384.05;;;993.35;;
51949;SDS011;37974;53.218;6.640;2023-09-19T01:35:17;1252.75;;;956.70;;
51949;SDS011;37974;53.218;6.640;2023-09-19T01:37:43;1214.80;;;940.70;;
51949;SDS011;37974;53.218;6.640;2023-09-19T01:40:11;1118.80;;;912.35;;
51949;SDS011;37974;53.218;6.640;2023-09-19T01:42:44;1183.90;;;930.20;;
51949;SDS011;37974;53.218;6.640;2023-09-19T01:51:02;1105.82;;;903.38;;
51949;SDS011;37974;53.218;6.640;2023-09-19T01:56:19;1028.78;;;890.47;;
51949;SDS011;37974;53.218;6.640;2023-09-19T01:58:50;1080.43;;;890.65;;
51949;SDS011;37974;53.218;6.640;2023-09-19T02:01:22;1089.45;;;902.00;;
51949;SDS011;37974;53.218;6.640;2023-09-19T02:03:49;1172.70;;;931.95;;
51949;SDS011;37974;53.218;6.640;2023-09-19T02:06:16;1204.32;;;942.65;;
51949;SDS011;37974;53.218;6.640;2023-09-19T02:08:43;1131.75;;;907.13;;
51949;SDS011;37974;53.218;6.640;2023-09-19T02:11:10;1224.35;;;945.33;;
51949;SDS011;37974;53.218;6.640;2023-09-19T02:13:38;1126.72;;;913.10;;
51949;SDS011;37974;53.218;6.640;2023-09-19T02:16:03;1208.35;;;947.55;;
51949;SDS011;37974;53.218;6.640;2023-09-19T02:18:29;1074.60;;;898.55;;
51949;SDS011;37974;53.218;6.640;2023-09-19T02:20:56;1202.57;;;937.45;;
51949;SDS011;37974;53.218;6.640;2023-09-19T02:23:24;1200.75;;;935.60;;
51949;SDS011;37974;53.218;6.640;2023-09-19T02:25:53;1115.47;;;912.95;;
51949;SDS011;37974;53.218;6.640;2023-09-19T02:28:19;1212.13;;;938.25;;
51949;SDS011;37974;53.218;6.640;2023-09-19T02:30:48;1124.15;;;912.38;;
51949;SDS011;37974;53.218;6.640;2023-09-19T02:33:15;1132.80;;;903.83;;
51949;SDS011;37974;53.218;6.640;2023-09-19T02:35:42;1129.97;;;914.03;;
51949;SDS011;37974;53.218;6.640;2023-09-19T02:38:08;1035.90;;;885.22;;
51949;SDS011;37974;53.218;6.640;2023-09-19T02:40:36;1154.80;;;924.33;;
51949;SDS011;37974;53.218;6.640;2023-09-19T02:43:05;1159.32;;;930.22;;
51949;SDS011;37974;53.218;6.640;2023-09-19T02:45:32;1048.97;;;885.33;;
51949;SDS011;37974;53.218;6.640;2023-09-19T02:47:57;1170.95;;;924.15;;
51949;SDS011;37974;53.218;6.640;2023-09-19T02:50:23;1078.35;;;898.08;;
51949;SDS011;37974;53.218;6.640;2023-09-19T02:52:49;1055.07;;;887.03;;
51949;SDS011;37974;53.218;6.640;2023-09-19T02:55:15;1171.35;;;919.42;;
51949;SDS011;37974;53.218;6.640;2023-09-19T02:57:50;1095.47;;;911.67;;
51949;SDS011;37974;53.218;6.640;2023-09-19T03:00:18;1160.32;;;928.17;;
51949;SDS011;37974;53.218;6.640;2023-09-19T03:02:54;1080.55;;;892.50;;
51949;SDS011;37974;53.218;6.640;2023-09-19T03:05:20;1060.63;;;888.53;;
51949;SDS011;37974;53.218;6.640;2023-09-19T03:07:48;1176.15;;;922.35;;
51949;SDS011;37974;53.218;6.640;2023-09-19T03:10:16;1181.18;;;937.88;;
51949;SDS011;37974;53.218;6.640;2023-09-19T03:12:48;1091.78;;;899.25;;
51949;SDS011;37974;53.218;6.640;2023-09-19T03:15:15;1145.30;;;932.70;;
51949;SDS011;37974;53.218;6.640;2023-09-19T03:17:44;1128.13;;;915.03;;
51949;SDS011;37974;53.218;6.640;2023-09-19T03:20:11;1140.82;;;925.45;;
51949;SDS011;37974;53.218;6.640;2023-09-19T03:22:38;1151.38;;;926.25;;
51949;SDS011;37974;53.218;6.640;2023-09-19T03:25:07;1041.13;;;883.75;;
51949;SDS011;37974;53.218;6.640;2023-09-19T03:27:34;1094.30;;;900.13;;
51949;SDS011;37974;53.218;6.640;2023-09-19T03:30:03;1071.55;;;887.50;;
51949;SDS011;37974;53.218;6.640;2023-09-19T03:32:37;1102.03;;;901.75;;
51949;SDS011;37974;53.218;6.640;2023-09-19T03:35:12;1175.85;;;932.08;;
51949;SDS011;37974;53.218;6.640;2023-09-19T03:37:39;1105.35;;;910.38;;
51949;SDS011;37974;53.218;6.640;2023-09-19T03:40:06;1144.25;;;921.85;;
51949;SDS011;37974;53.218;6.640;2023-09-19T03:42:32;1326.32;;;978.30;;
51949;SDS011;37974;53.218;6.640;2023-09-19T03:45:01;1279.47;;;954.10;;
51949;SDS011;37974;53.218;6.640;2023-09-19T03:47:29;1347.00;;;986.28;;
51949;SDS011;37974;53.218;6.640;2023-09-19T03:49:55;1505.22;;;999.90;;
51949;SDS011;37974;53.218;6.640;2023-09-19T03:52:20;1487.72;;;999.90;;
51949;SDS011;37974;53.218;6.640;2023-09-19T03:54:46;1524.45;;;999.90;;
51949;SDS011;37974;53.218;6.640;2023-09-19T03:57:11;1549.30;;;999.90;;
51949;SDS011;37974;53.218;6.640;2023-09-19T03:59:37;1698.47;;;999.90;;
51949;SDS011;37974;53.218;6.640;2023-09-19T04:02:03;1596.72;;;999.90;;
51949;SDS011;37974;53.218;6.640;2023-09-19T04:04:29;1632.72;;;999.90;;
51949;SDS011;37974;53.218;6.640;2023-09-19T04:06:55;1641.38;;;999.90;;
51949;SDS011;37974;53.218;6.640;2023-09-19T04:09:21;1621.38;;;999.90;;
51949;SDS011;37974;53.218;6.640;2023-09-19T04:11:46;1583.63;;;999.90;;
51949;SDS011;37974;53.218;6.640;2023-09-19T04:14:12;1613.60;;;999.90;;
51949;SDS011;37974;53.218;6.640;2023-09-19T04:16:38;1634.53;;;999.90;;
51949;SDS011;37974;53.218;6.640;2023-09-19T04:19:04;1625.60;;;999.90;;
51949;SDS011;37974;53.218;6.640;2023-09-19T04:21:30;1593.18;;;999.90;;
51949;SDS011;37974;53.218;6.640;2023-09-19T04:23:58;1623.63;;;999.90;;
51949;SDS011;37974;53.218;6.640;2023-09-19T04:26:24;1570.65;;;999.90;;
51949;SDS011;37974;53.218;6.640;2023-09-19T04:28:51;1590.88;;;999.90;;
51949;SDS011;37974;53.218;6.640;2023-09-19T04:31:17;1587.63;;;999.90;;
51949;SDS011;37974;53.218;6.640;2023-09-19T04:33:43;1486.35;;;999.90;;
51949;SDS011;37974;53.218;6.640;2023-09-19T04:36:09;1532.38;;;999.90;;
51949;SDS011;37974;53.218;6.640;2023-09-19T04:38:35;1605.93;;;999.90;;
51949;SDS011;37974;53.218;6.640;2023-09-19T04:41:00;1516.47;;;999.90;;
51949;SDS011;37974;53.218;6.640;2023-09-19T04:43:26;1589.10;;;999.90;;
51949;SDS011;37974;53.218;6.640;2023-09-19T04:45:52;1557.55;;;999.90;;
51949;SDS011;37974;53.218;6.640;2023-09-19T04:48:23;1526.72;;;999.90;;
51949;SDS011;37974;53.218;6.640;2023-09-19T04:50:49;1519.35;;;999.90;;
51949;SDS011;37974;53.218;6.640;2023-09-19T04:53:16;1557.15;;;999.90;;
51949;SDS011;37974;53.218;6.640;2023-09-19T04:55:42;1526.28;;;999.90;;
51949;SDS011;37974;53.218;6.640;2023-09-19T04:58:08;1515.50;;;999.90;;
51949;SDS011;37974;53.218;6.640;2023-09-19T05:00:34;1524.78;;;999.90;;
51949;SDS011;37974;53.218;6.640;2023-09-19T05:03:00;1466.35;;;999.90;;
51949;SDS011;37974;53.218;6.640;2023-09-19T05:05:26;1479.30;;;999.90;;
51949;SDS011;37974;53.218;6.640;2023-09-19T05:07:52;1578.28;;;999.90;;
51949;SDS011;37974;53.218;6.640;2023-09-19T05:10:20;1538.53;;;999.90;;
51949;SDS011;37974;53.218;6.640;2023-09-19T05:12:46;1552.90;;;999.90;;
51949;SDS011;37974;53.218;6.640;2023-09-19T05:15:13;1510.50;;;999.90;;
51949;SDS011;37974;53.218;6.640;2023-09-19T05:17:47;1614.40;;;999.90;;
51949;SDS011;37974;53.218;6.640;2023-09-19T05:20:16;1543.50;;;999.90;;
51949;SDS011;37974;53.218;6.640;2023-09-19T05:23:02;1559.38;;;999.90;;
51949;SDS011;37974;53.218;6.640;2023-09-19T05:25:32;1496.50;;;999.90;;
51949;SDS011;37974;53.218;6.640;2023-09-19T05:28:02;1485.20;;;999.55;;
51949;SDS011;37974;53.218;6.640;2023-09-19T05:30:28;1570.65;;;999.90;;
51949;SDS011;37974;53.218;6.640;2023-09-19T05:32:55;1515.32;;;999.90;;
51949;SDS011;37974;53.218;6.640;2023-09-19T05:35:21;1448.88;;;999.90;;
51949;SDS011;37974;53.218;6.640;2023-09-19T05:37:47;1465.10;;;999.90;;
51949;SDS011;37974;53.218;6.640;2023-09-19T05:40:16;1455.93;;;999.90;;
51949;SDS011;37974;53.218;6.640;2023-09-19T05:42:42;1435.13;;;998.60;;
51949;SDS011;37974;53.218;6.640;2023-09-19T05:45:09;1456.97;;;999.90;;
51949;SDS011;37974;53.218;6.640;2023-09-19T05:47:41;1512.72;;;999.90;;
51949;SDS011;37974;53.218;6.640;2023-09-19T05:50:08;1493.78;;;999.90;;
51949;SDS011;37974;53.218;6.640;2023-09-19T05:52:37;1480.45;;;999.90;;
51949;SDS011;37974;53.218;6.640;2023-09-19T05:55:04;1435.10;;;999.90;;
51949;SDS011;37974;53.218;6.640;2023-09-19T05:57:32;1485.28;;;999.90;;
51949;SDS011;37974;53.218;6.640;2023-09-19T05:59:58;1444.95;;;998.58;;
51949;SDS011;37974;53.218;6.640;2023-09-19T06:02:23;1449.63;;;999.90;;
51949;SDS011;37974;53.218;6.640;2023-09-19T06:04:50;1383.85;;;986.67;;
51949;SDS011;37974;53.218;6.640;2023-09-19T06:07:18;1309.43;;;964.47;;
51949;SDS011;37974;53.218;6.640;2023-09-19T06:09:43;1338.15;;;969.22;;
51949;SDS011;37974;53.218;6.640;2023-09-19T06:12:09;1426.03;;;999.28;;
51949;SDS011;37974;53.218;6.640;2023-09-19T06:14:38;1406.65;;;999.90;;
51949;SDS011;37974;53.218;6.640;2023-09-19T06:17:05;1439.60;;;999.00;;
51949;SDS011;37974;53.218;6.640;2023-09-19T06:19:31;1458.97;;;999.90;;
51949;SDS011;37974;53.218;6.640;2023-09-19T06:21:58;1366.82;;;983.03;;
51949;SDS011;37974;53.218;6.640;2023-09-19T06:24:24;1312.32;;;961.88;;
51949;SDS011;37974;53.218;6.640;2023-09-19T06:26:50;1381.38;;;987.92;;
51949;SDS011;37974;53.218;6.640;2023-09-19T06:29:18;1303.13;;;968.15;;
51949;SDS011;37974;53.218;6.640;2023-09-19T06:31:46;1286.57;;;963.58;;
51949;SDS011;37974;53.218;6.640;2023-09-19T06:34:12;1241.15;;;947.30;;
51949;SDS011;37974;53.218;6.640;2023-09-19T06:36:40;1215.75;;;942.25;;
51949;SDS011;37974;53.218;6.640;2023-09-19T06:39:06;1231.32;;;945.45;;
51949;SDS011;37974;53.218;6.640;2023-09-19T06:41:36;1180.25;;;924.00;;
51949;SDS011;37974;53.218;6.640;2023-09-19T06:44:04;1096.82;;;901.65;;
51949;SDS011;37974;53.218;6.640;2023-09-19T06:46:30;1053.50;;;886.08;;
51949;SDS011;37974;53.218;6.640;2023-09-19T06:49:00;1048.47;;;884.10;;
51949;SDS011;37974;53.218;6.640;2023-09-19T06:51:31;1121.25;;;900.75;;
51949;SDS011;37974;53.218;6.640;2023-09-19T06:53:58;1131.45;;;910.63;;
51949;SDS011;37974;53.218;6.640;2023-09-19T06:56:23;1028.57;;;870.25;;
51949;SDS011;37974;53.218;6.640;2023-09-19T06:58:49;985.85;;;864.97;;
51949;SDS011;37974;53.218;6.640;2023-09-19T07:01:15;1004.58;;;871.17;;
51949;SDS011;37974;53.218;6.640;2023-09-19T07:03:41;1035.03;;;885.42;;
51949;SDS011;37974;53.218;6.640;2023-09-19T07:06:06;1134.07;;;904.63;;
51949;SDS011;37974;53.218;6.640;2023-09-19T07:08:33;1026.57;;;867.35;;
51949;SDS011;37974;53.218;6.640;2023-09-19T07:10:59;969.25;;;862.58;;
51949;SDS011;37974;53.218;6.640;2023-09-19T07:13:26;1025.25;;;874.60;;
51949;SDS011;37974;53.218;6.640;2023-09-19T07:15:52;956.97;;;851.42;;
51949;SDS011;37974;53.218;6.640;2023-09-19T07:18:19;977.60;;;865.65;;
51949;SDS011;37974;53.218;6.640;2023-09-19T07:20:45;960.55;;;853.28;;
51949;SDS011;37974;53.218;6.640;2023-09-19T07:23:21;1030.22;;;881.45;;
51949;SDS011;37974;53.218;6.640;2023-09-19T07:25:49;1034.45;;;871.08;;
51949;SDS011;37974;53.218;6.640;2023-09-19T07:28:15;972.47;;;860.83;;
51949;SDS011;37974;53.218;6.640;2023-09-19T07:30:41;979.60;;;850.22;;
51949;SDS011;37974;53.218;6.640;2023-09-19T07:33:07;869.67;;;780.25;;
51949;SDS011;37974;53.218;6.640;2023-09-19T07:35:36;831.03;;;747.67;;
51949;SDS011;37974;53.218;6.640;2023-09-19T07:38:05;933.75;;;831.70;;
51949;SDS011;37974;53.218;6.640;2023-09-19T07:40:31;888.88;;;796.83;;
51949;SDS011;37974;53.218;6.640;2023-09-19T07:42:57;887.97;;;796.28;;
51949;SDS011;37974;53.218;6.640;2023-09-19T07:45:26;881.90;;;791.20;;
51949;SDS011;37974;53.218;6.640;2023-09-19T07:47:56;848.08;;;764.67;;
51949;SDS011;37974;53.218;6.640;2023-09-19T07:50:22;868.40;;;780.15;;
51949;SDS011;37974;53.218;6.640;2023-09-19T07:52:49;881.72;;;791.58;;
51949;SDS011;37974;53.218;6.640;2023-09-19T07:55:18;886.35;;;797.50;;
51949;SDS011;37974;53.218;6.640;2023-09-19T07:57:48;895.75;;;801.70;;
51949;SDS011;37974;53.218;6.640;2023-09-19T08:00:14;872.92;;;784.78;;
51949;SDS011;37974;53.218;6.640;2023-09-19T08:02:40;883.78;;;792.20;;
51949;SDS011;37974;53.218;6.640;2023-09-19T08:05:10;875.60;;;785.95;;
51949;SDS011;37974;53.218;6.640;2023-09-19T08:07:37;826.17;;;743.85;;
51949;SDS011;37974;53.218;6.640;2023-09-19T08:10:04;875.30;;;787.70;;
51949;SDS011;37974;53.218;6.640;2023-09-19T08:12:38;891.90;;;801.15;;
51949;SDS011;37974;53.218;6.640;2023-09-19T08:15:15;898.67;;;804.83;;
51949;SDS011;37974;53.218;6.640;2023-09-19T08:17:45;841.63;;;759.25;;
51949;SDS011;37974;53.218;6.640;2023-09-19T08:20:11;862.00;;;775.10;;
51949;SDS011;37974;53.218;6.640;2023-09-19T08:22:48;919.47;;;823.10;;
51949;SDS011;37974;53.218;6.640;2023-09-19T08:25:19;869.88;;;785.20;;
51949;SDS011;37974;53.218;6.640;2023-09-19T08:27:50;889.17;;;796.85;;
51949;SDS011;37974;53.218;6.640;2023-09-19T08:30:20;874.95;;;786.15;;
51949;SDS011;37974;53.218;6.640;2023-09-19T08:32:49;877.60;;;788.70;;
51949;SDS011;37974;53.218;6.640;2023-09-19T08:35:25;854.13;;;769.25;;
51949;SDS011;37974;53.218;6.640;2023-09-19T08:37:51;920.67;;;822.63;;
51949;SDS011;37974;53.218;6.640;2023-09-19T08:40:17;827.80;;;745.83;;
51949;SDS011;37974;53.218;6.640;2023-09-19T08:42:49;845.30;;;761.78;;
51949;SDS011;37974;53.218;6.640;2023-09-19T08:45:16;844.95;;;758.97;;
51949;SDS011;37974;53.218;6.640;2023-09-19T08:47:46;777.90;;;703.00;;
51949;SDS011;37974;53.218;6.640;2023-09-19T08:50:19;875.95;;;784.83;;
51949;SDS011;37974;53.218;6.640;2023-09-19T08:52:55;863.42;;;774.53;;
51949;SDS011;37974;53.218;6.640;2023-09-19T08:55:27;819.65;;;734.25;;
51949;SDS011;37974;53.218;6.640;2023-09-19T08:58:14;871.80;;;779.17;;
51949;SDS011;37974;53.218;6.640;2023-09-19T09:00:44;848.83;;;757.35;;
51949;SDS011;37974;53.218;6.640;2023-09-19T09:03:14;911.63;;;810.72;;
51949;SDS011;37974;53.218;6.640;2023-09-19T09:05:41;838.17;;;755.28;;
51949;SDS011;37974;53.218;6.640;2023-09-19T09:08:11;852.25;;;763.35;;
51949;SDS011;37974;53.218;6.640;2023-09-19T09:10:37;907.15;;;803.33;;
51949;SDS011;37974;53.218;6.640;2023-09-19T09:13:05;871.20;;;776.53;;
51949;SDS011;37974;53.218;6.640;2023-09-19T09:15:31;940.25;;;813.58;;
51949;SDS011;37974;53.218;6.640;2023-09-19T09:18:01;903.05;;;802.55;;
51949;SDS011;37974;53.218;6.640;2023-09-19T09:20:30;869.22;;;775.50;;
51949;SDS011;37974;53.218;6.640;2023-09-19T09:22:56;869.47;;;776.25;;
51949;SDS011;37974;53.218;6.640;2023-09-19T09:28:25;862.88;;;774.45;;
51949;SDS011;37974;53.218;6.640;2023-09-19T09:30:53;821.33;;;735.75;;
51949;SDS011;37974;53.218;6.640;2023-09-19T09:33:33;832.47;;;746.08;;
51949;SDS011;37974;53.218;6.640;2023-09-19T09:35:59;804.47;;;726.00;;
51949;SDS011;37974;53.218;6.640;2023-09-19T09:38:44;817.67;;;733.92;;
51949;SDS011;37974;53.218;6.640;2023-09-19T09:41:11;804.42;;;720.78;;
51949;SDS011;37974;53.218;6.640;2023-09-19T09:43:41;817.10;;;733.45;;
51949;SDS011;37974;53.218;6.640;2023-09-19T09:51:39;853.20;;;762.78;;
51949;SDS011;37974;53.218;6.640;2023-09-19T09:54:14;813.67;;;727.33;;
51949;SDS011;37974;53.218;6.640;2023-09-19T09:59:37;703.60;;;630.00;;
51949;SDS011;37974;53.218;6.640;2023-09-19T10:02:16;762.40;;;682.38;;
51949;SDS011;37974;53.218;6.640;2023-09-19T10:04:51;801.88;;;712.28;;
51949;SDS011;37974;53.218;6.640;2023-09-19T10:07:30;769.85;;;686.65;;
51949;SDS011;37974;53.218;6.640;2023-09-19T10:10:29;745.13;;;667.80;;
51949;SDS011;37974;53.218;6.640;2023-09-19T10:13:08;722.42;;;644.85;;
51949;SDS011;37974;53.218;6.640;2023-09-19T10:15:39;759.25;;;681.17;;
51949;SDS011;37974;53.218;6.640;2023-09-19T10:18:16;723.83;;;656.15;;
51949;SDS011;37974;53.218;6.640;2023-09-19T10:20:46;776.08;;;703.72;;
51949;SDS011;37974;53.218;6.640;2023-09-19T10:23:15;793.22;;;715.38;;
51949;SDS011;37974;53.218;6.640;2023-09-19T10:28:13;833.65;;;746.53;;
51949;SDS011;37974;53.218;6.640;2023-09-19T10:30:41;840.35;;;757.63;;
51949;SDS011;37974;53.218;6.640;2023-09-19T10:33:10;810.58;;;732.58;;
51949;SDS011;37974;53.218;6.640;2023-09-19T10:35:42;847.35;;;761.67;;
51949;SDS011;37974;53.218;6.640;2023-09-19T10:38:12;844.85;;;760.10;;
51949;SDS011;37974;53.218;6.640;2023-09-19T10:40:39;853.10;;;767.17;;
51949;SDS011;37974;53.218;6.640;2023-09-19T10:43:11;868.65;;;780.40;;
51949;SDS011;37974;53.218;6.640;2023-09-19T10:45:42;819.30;;;740.92;;
51949;SDS011;37974;53.218;6.640;2023-09-19T10:48:10;888.42;;;796.88;;
51949;SDS011;37974;53.218;6.640;2023-09-19T10:50:58;883.60;;;795.50;;
51949;SDS011;37974;53.218;6.640;2023-09-19T10:53:25;858.40;;;774.05;;
51949;SDS011;37974;53.218;6.640;2023-09-19T10:55:55;855.80;;;771.08;;
51949;SDS011;37974;53.218;6.640;2023-09-19T10:58:28;822.72;;;745.05;;
51949;SDS011;37974;53.218;6.640;2023-09-19T11:00:58;850.45;;;769.15;;
51949;SDS011;37974;53.218;6.640;2023-09-19T11:03:35;883.10;;;793.47;;
51949;SDS011;37974;53.218;6.640;2023-09-19T11:30:45;892.70;;;800.45;;
51949;SDS011;37974;53.218;6.640;2023-09-19T11:36:13;831.58;;;750.08;;
51949;SDS011;37974;53.218;6.640;2023-09-19T11:46:13;902.75;;;806.97;;
51949;SDS011;37974;53.218;6.640;2023-09-19T11:48:42;874.85;;;786.60;;
51949;SDS011;37974;53.218;6.640;2023-09-19T11:51:10;849.08;;;763.85;;
51949;SDS011;37974;53.218;6.640;2023-09-19T11:53:44;957.20;;;853.28;;
51949;SDS011;37974;53.218;6.640;2023-09-19T11:56:14;894.25;;;800.88;;
51949;SDS011;37974;53.218;6.640;2023-09-19T11:58:43;878.00;;;787.28;;
51949;SDS011;37974;53.218;6.640;2023-09-19T12:01:12;831.03;;;746.38;;
51949;SDS011;37974;53.218;6.640;2023-09-19T12:03:40;851.58;;;765.58;;
51949;SDS011;37974;53.218;6.640;2023-09-19T12:06:12;857.13;;;770.30;;
51949;SDS011;37974;53.218;6.640;2023-09-19T12:08:40;913.15;;;814.45;;
51949;SDS011;37974;53.218;6.640;2023-09-19T12:11:11;879.17;;;788.00;;
51949;SDS011;37974;53.218;6.640;2023-09-19T12:13:45;899.25;;;804.60;;
51949;SDS011;37974;53.218;6.640;2023-09-19T12:16:16;908.15;;;811.78;;
51949;SDS011;37974;53.218;6.640;2023-09-19T12:18:46;888.58;;;795.30;;
51949;SDS011;37974;53.218;6.640;2023-09-19T12:24:03;897.00;;;802.35;;
51949;SDS011;37974;53.218;6.640;2023-09-19T12:26:30;886.78;;;792.45;;
51949;SDS011;37974;53.218;6.640;2023-09-19T12:31:30;924.10;;;824.20;;
51949;SDS011;37974;53.218;6.640;2023-09-19T12:34:01;953.88;;;849.78;;
51949;SDS011;37974;53.218;6.640;2023-09-19T12:36:27;904.72;;;810.80;;
51949;SDS011;37974;53.218;6.640;2023-09-19T12:38:56;920.60;;;824.75;;
51949;SDS011;37974;53.218;6.640;2023-09-19T12:41:24;899.80;;;808.65;;
51949;SDS011;37974;53.218;6.640;2023-09-19T12:43:51;934.13;;;832.35;;
51949;SDS011;37974;53.218;6.640;2023-09-19T12:46:22;918.05;;;819.75;;
51949;SDS011;37974;53.218;6.640;2023-09-19T12:51:45;886.22;;;795.00;;
51949;SDS011;37974;53.218;6.640;2023-09-19T12:54:12;881.30;;;789.88;;
51949;SDS011;37974;53.218;6.640;2023-09-19T12:56:40;941.15;;;840.85;;
51949;SDS011;37974;53.218;6.640;2023-09-19T12:59:10;888.90;;;796.50;;
51949;SDS011;37974;53.218;6.640;2023-09-19T13:01:40;902.38;;;807.60;;
51949;SDS011;37974;53.218;6.640;2023-09-19T13:04:13;882.00;;;792.60;;
51949;SDS011;37974;53.218;6.640;2023-09-19T13:06:47;865.65;;;775.97;;
51949;SDS011;37974;53.218;6.640;2023-09-19T13:09:15;913.47;;;817.53;;
51949;SDS011;37974;53.218;6.640;2023-09-19T13:11:42;918.17;;;822.33;;
51949;SDS011;37974;53.218;6.640;2023-09-19T13:16:57;928.50;;;830.60;;
51949;SDS011;37974;53.218;6.640;2023-09-19T13:22:38;923.00;;;823.33;;
51949;SDS011;37974;53.218;6.640;2023-09-19T13:25:12;927.45;;;824.42;;
51949;SDS011;37974;53.218;6.640;2023-09-19T13:27:44;998.90;;;849.42;;
51949;SDS011;37974;53.218;6.640;2023-09-19T13:30:14;894.17;;;798.60;;
51949;SDS011;37974;53.218;6.640;2023-09-19T13:32:40;884.03;;;788.92;;
51949;SDS011;37974;53.218;6.640;2023-09-19T13:35:08;919.67;;;799.22;;
51949;SDS011;37974;53.218;6.640;2023-09-19T13:37:40;999.53;;;837.85;;
51949;SDS011;37974;53.218;6.640;2023-09-19T13:42:34;879.85;;;768.80;;
51949;SDS011;37974;53.218;6.640;2023-09-19T13:45:02;945.35;;;796.25;;
51949;SDS011;37974;53.218;6.640;2023-09-19T13:47:31;995.13;;;816.65;;
51949;SDS011;37974;53.218;6.640;2023-09-19T13:50:01;955.55;;;810.05;;
51949;SDS011;37974;53.218;6.640;2023-09-19T13:52:29;917.72;;;788.90;;
51949;SDS011;37974;53.218;6.640;2023-09-19T13:54:58;893.03;;;790.45;;
51949;SDS011;37974;53.218;6.640;2023-09-19T13:57:24;1005.78;;;850.13;;
51949;SDS011;37974;53.218;6.640;2023-09-19T13:59:52;925.35;;;806.17;;
51949;SDS011;37974;53.218;6.640;2023-09-19T14:02:19;997.47;;;849.00;;
51949;SDS011;37974;53.218;6.640;2023-09-19T14:04:57;923.88;;;799.95;;
51949;SDS011;37974;53.218;6.640;2023-09-19T14:07:23;857.15;;;761.42;;
51949;SDS011;37974;53.218;6.640;2023-09-19T14:09:48;897.20;;;795.17;;
51949;SDS011;37974;53.218;6.640;2023-09-19T14:12:14;908.38;;;799.42;;
51949;SDS011;37974;53.218;6.640;2023-09-19T14:14:40;959.13;;;812.53;;
51949;SDS011;37974;53.218;6.640;2023-09-19T14:17:06;895.25;;;779.75;;
51949;SDS011;37974;53.218;6.640;2023-09-19T14:19:32;868.80;;;772.88;;
51949;SDS011;37974;53.218;6.640;2023-09-19T14:21:58;939.53;;;808.17;;
51949;SDS011;37974;53.218;6.640;2023-09-19T14:24:25;953.42;;;795.90;;
51949;SDS011;37974;53.218;6.640;2023-09-19T14:26:51;814.13;;;725.88;;
51949;SDS011;37974;53.218;6.640;2023-09-19T14:29:16;822.95;;;734.60;;
51949;SDS011;37974;53.218;6.640;2023-09-19T14:31:42;814.42;;;730.72;;
51949;SDS011;37974;53.218;6.640;2023-09-19T14:34:09;859.75;;;764.42;;
51949;SDS011;37974;53.218;6.640;2023-09-19T14:36:35;880.45;;;772.88;;
51949;SDS011;37974;53.218;6.640;2023-09-19T14:39:03;848.78;;;756.33;;
51949;SDS011;37974;53.218;6.640;2023-09-19T14:41:30;843.70;;;755.35;;
51949;SDS011;37974;53.218;6.640;2023-09-19T14:43:56;872.28;;;777.17;;
51949;SDS011;37974;53.218;6.640;2023-09-19T14:46:22;877.50;;;781.17;;
51949;SDS011;37974;53.218;6.640;2023-09-19T14:48:51;807.70;;;726.03;;
51949;SDS011;37974;53.218;6.640;2023-09-19T14:51:19;866.85;;;773.50;;
51949;SDS011;37974;53.218;6.640;2023-09-19T14:53:45;901.50;;;802.03;;
51949;SDS011;37974;53.218;6.640;2023-09-19T14:56:12;874.80;;;781.53;;
51949;SDS011;37974;53.218;6.640;2023-09-19T14:58:41;892.15;;;794.53;;
51949;SDS011;37974;53.218;6.640;2023-09-19T15:01:08;900.45;;;774.28;;
51949;SDS011;37974;53.218;6.640;2023-09-19T15:03:38;847.60;;;753.97;;
51949;SDS011;37974;53.218;6.640;2023-09-19T15:06:05;851.47;;;756.38;;
51949;SDS011;37974;53.218;6.640;2023-09-19T15:08:34;929.85;;;780.17;;
51949;SDS011;37974;53.218;6.640;2023-09-19T15:11:06;917.55;;;792.13;;
51949;SDS011;37974;53.218;6.640;2023-09-19T15:13:33;1007.85;;;831.60;;
51949;SDS011;37974;53.218;6.640;2023-09-19T15:16:03;965.97;;;808.17;;
51949;SDS011;37974;53.218;6.640;2023-09-19T15:18:33;894.25;;;782.20;;
51949;SDS011;37974;53.218;6.640;2023-09-19T15:21:12;891.13;;;792.50;;
51949;SDS011;37974;53.218;6.640;2023-09-19T15:23:39;905.22;;;782.90;;